Time;durP1;ratioP1;P1;durP2;ratioP2;P2;SDS_P1;SDS_P2;PMS_P1;PMS_P2;Temp;Humidity;BMP_temperature;BMP_pressure;BME280_temperature;BME280_humidity;BME280_pressure;Samples;Min_cycle;Max_cycle;Signal;HPM_P1;HPM_P2
2021/10/07 00:02:03;;;;;;;8.30;4.60;;;;;;;9.75;58.77;98039.20;116403;1182;68458;-73
2021/10/07 00:04:33;;;;;;;7.70;5.60;;;;;;;9.80;58.71;98038.95;116339;1182;59842;-74
2021/10/07 00:07:03;;;;;;;;;;;;;;;9.81;58.45;98040.41;116300;1183;59577;-72
2021/10/07 00:09:33;;;;;;;6.70;5.90;;;;;;;9.77;58.68;98045.21;116359;1182;70629;-71
2021/10/07 00:12:03;;;;;;;8.70;6.30;;;;;;;9.73;58.86;98047.52;116306;1182;68751;-71
2021/10/07 00:14:33;;;;;;;7.90;6.20;;;;;;;9.68;59.09;98047.96;116320;1183;69063;-74
2021/10/07 00:17:03;;;;;;;9.00;5.20;;;;;;;9.66;59.03;98046.73;116232;1183;59512;-72
2021/10/07 00:19:34;;;;;;;6.40;5.10;;;;;;;9.66;59.03;98048.94;116309;1178;59564;-74
2021/10/07 00:22:05;;;;;;;8.90;6.40;;;;;;;9.63;59.12;98046.38;116342;1182;70413;-70
2021/10/07 00:24:34;;;;;;;11.70;6.30;;;;;;;9.58;59.41;98047.55;116112;1184;68241;-74
2021/10/07 00:27:04;;;;;;;6.90;5.20;;;;;;;9.56;59.23;98047.45;116149;1184;70596;-70
2021/10/07 00:29:38;;;;;;;6.50;5.20;;;;;;;9.56;59.06;98046.79;116150;1183;59515;-74
2021/10/07 00:40:09;;;;;;;7.70;4.80;;;;;;;9.52;59.03;98041.97;116189;1184;68528;-74
2021/10/07 00:42:39;;;;;;;7.20;5.40;;;;;;;9.54;58.92;98038.73;116315;1183;59565;-73
2021/10/07 00:45:10;;;;;;;8.00;4.90;;;;;;;9.55;58.69;98040.41;116214;1182;59563;-71
2021/10/07 00:47:39;;;;;;;;;;;;;;;9.61;58.22;98044.25;116245;1183;72542;-74
2021/10/07 00:50:09;;;;;;;10.00;6.60;;;;;;;9.57;58.37;98044.11;116262;1184;68261;-76
2021/10/07 00:52:38;;;;;;;6.20;4.70;;;;;;;9.48;58.91;98040.97;116234;1184;69308;-73
2021/10/07 00:55:11;;;;;;;9.50;5.40;;;;;;;9.57;58.01;98033.11;116242;1184;59544;-73
2021/10/07 00:57:42;;;;;;;7.20;5.20;;;;;;;9.56;58.06;98036.36;116250;1183;59513;-73
2021/10/07 01:00:14;;;;;;;7.10;4.70;;;;;;;9.52;58.20;98042.30;116286;1182;72649;-74
2021/10/07 01:02:44;;;;;;;8.00;5.60;;;;;;;9.47;58.24;98040.34;116248;1182;67692;-74
2021/10/07 01:05:14;;;;;;;10.20;5.30;;;;;;;9.44;58.31;98043.13;116259;1184;69076;-74
2021/10/07 01:07:43;;;;;;;6.40;4.30;;;;;;;9.47;57.89;98044.20;116325;1182;59701;-70
2021/10/07 01:10:13;;;;;;;5.90;4.40;;;;;;;9.48;57.82;98047.26;116094;1184;59925;-71
2021/10/07 01:12:42;;;;;;;7.90;4.80;;;;;;;9.46;57.80;98046.52;116314;1182;70393;-72
2021/10/07 01:15:19;;;;;;;8.40;6.00;;;;;;;9.45;57.72;98047.08;116298;1184;67644;-74
2021/10/07 01:17:48;;;;;;;6.40;4.00;;;;;;;9.39;57.83;98045.36;116218;1183;68371;-73
2021/10/07 01:20:18;;;;;;;7.10;4.20;;;;;;;9.40;57.47;98047.36;116283;1183;59529;-74
2021/10/07 01:22:47;;;;;;;7.40;4.90;;;;;;;9.42;57.13;98045.70;116358;1182;59548;-72
2021/10/07 01:25:18;;;;;;;6.00;4.00;;;;;;;9.38;57.23;98046.44;116227;1184;70570;-71
2021/10/07 01:27:55;;;;;;;8.70;5.00;;;;;;;9.34;57.55;98049.29;116338;1184;66501;-70
2021/10/07 01:30:25;;;;;;;9.00;4.50;;;;;;;9.25;57.79;98048.80;116429;1182;68266;-74
2021/10/07 01:32:57;;;;;;;8.60;5.10;;;;;;;9.27;57.44;98051.23;116339;1182;59561;-71
2021/10/07 01:35:27;;;;;;;7.60;5.00;;;;;;;9.22;57.64;98052.24;116403;1182;59558;-72
2021/10/07 01:37:56;;;;;;;7.70;5.00;;;;;;;9.18;57.47;98050.52;116244;1184;71407;-72
2021/10/07 01:40:26;;;;;;;6.70;4.70;;;;;;;9.20;57.32;98052.69;116284;1182;67485;-72
2021/10/07 01:42:56;;;;;;;6.00;3.90;;;;;;;9.14;57.58;98052.32;116359;1182;69252;-74
2021/10/07 01:45:26;;;;;;;7.30;4.40;;;;;;;9.19;57.23;98057.60;116169;1184;59568;-72
2021/10/07 01:47:56;;;;;;;6.00;4.80;;;;;;;9.12;57.39;98057.11;116338;1182;59485;-74
2021/10/07 01:50:26;;;;;;;;;;;;;;;9.09;57.58;98059.77;116395;1182;71186;-73
2021/10/07 01:52:55;;;;;;;6.00;3.40;;;;;;;9.12;57.11;98057.69;116279;1182;67628;-71
2021/10/07 01:55:25;;;;;;;8.90;4.50;;;;;;;9.10;57.18;98056.56;116291;1182;69056;-73
2021/10/07 01:57:55;;;;;;;8.60;4.60;;;;;;;9.08;57.09;98054.95;116314;1183;59551;-73
2021/10/07 02:00:25;;;;;;;;;;;;;;;9.08;57.05;98050.08;116198;1182;59554;-73
2021/10/07 02:02:57;;;;;;;6.00;4.00;;;;;;;9.09;56.72;98053.66;116439;1182;70818;-72
2021/10/07 02:05:26;;;;;;;7.70;4.90;;;;;;;9.11;56.63;98056.65;116381;1182;68401;-74
2021/10/07 02:07:56;;;;;;;8.40;4.50;;;;;;;9.04;56.79;98058.12;116248;1183;68480;-74
2021/10/07 02:10:25;;;;;;;7.40;4.60;;;;;;;9.02;56.77;98063.09;116218;1182;59545;-70
2021/10/07 02:12:55;;;;;;;7.70;4.90;;;;;;;9.02;56.51;98062.74;116125;1184;59621;-73
2021/10/07 02:15:25;;;;;;;5.90;4.00;;;;;;;9.05;55.97;98067.81;116288;1183;69830;-72
2021/10/07 02:17:55;;;;;;;6.80;3.70;;;;;;;9.01;56.24;98072.89;116129;1184;67770;-73
2021/10/07 02:20:25;;;;;;;9.10;4.50;;;;;;;9.01;55.98;98075.48;116179;1184;69200;-72
2021/10/07 02:22:54;;;;;;;5.20;3.80;;;;;;;8.98;55.81;98077.77;116127;1184;59596;-73
2021/10/07 02:25:24;;;;;;;7.30;3.70;;;;;;;8.97;55.64;98081.43;116267;1182;59604;-70
2021/10/07 02:27:54;;;;;;;5.70;4.10;;;;;;;8.96;55.53;98083.61;116153;1184;71666;-75
2021/10/07 02:30:24;;;;;;;9.60;3.60;;;;;;;8.92;55.78;98086.23;116227;1184;68148;-72
2021/10/07 02:32:54;;;;;;;6.10;4.10;;;;;;;8.92;55.49;98083.63;116242;1184;69060;-70
2021/10/07 02:35:25;;;;;;;9.20;4.20;;;;;;;8.90;55.16;98087.92;116208;1184;59524;-72
2021/10/07 02:37:55;;;;;;;4.40;3.70;;;;;;;8.92;54.93;98082.76;116188;1184;59514;-73
2021/10/07 02:40:25;;;;;;;;;;;;;;;8.89;55.12;98087.65;116226;1184;71369;-71
2021/10/07 02:42:55;;;;;;;5.70;3.70;;;;;;;8.83;55.24;98089.16;116280;1183;68384;-72
2021/10/07 02:45:26;;;;;;;7.20;4.50;;;;;;;8.82;55.28;98089.40;116173;1184;68285;-71
2021/10/07 02:47:56;;;;;;;7.30;3.50;;;;;;;8.78;55.15;98096.59;116213;1184;59554;-71
2021/10/07 02:50:27;;;;;;;5.70;3.80;;;;;;;8.84;54.78;98090.87;116217;1177;59536;-70
2021/10/07 02:52:57;;;;;;;7.30;3.80;;;;;;;8.79;54.83;98089.60;116114;1184;71388;-71
2021/10/07 02:55:26;;;;;;;5.20;3.20;;;;;;;8.81;54.56;98088.95;116182;1184;68425;-74
2021/10/07 02:57:55;;;;;;;6.70;3.70;;;;;;;8.84;54.16;98094.36;116093;1184;68322;-71
2021/10/07 03:00:25;;;;;;;7.00;3.90;;;;;;;8.85;54.13;98094.80;116198;1184;59929;-75
2021/10/07 03:02:55;;;;;;;5.40;3.50;;;;;;;8.78;54.61;98094.88;116211;1184;59545;-72
2021/10/07 03:05:25;;;;;;;5.70;4.10;;;;;;;8.81;54.22;98088.61;116206;1184;70459;-74
2021/10/07 03:07:55;;;;;;;6.80;3.20;;;;;;;8.77;54.40;98096.30;116176;1184;68609;-75
2021/10/07 03:10:25;;;;;;;7.00;3.70;;;;;;;8.75;54.30;98092.76;116093;1184;69062;-72
2021/10/07 03:12:55;;;;;;;5.50;3.80;;;;;;;8.72;54.42;98091.73;116125;1184;59545;-74
2021/10/07 03:15:24;;;;;;;6.30;3.40;;;;;;;8.75;54.29;98092.27;116218;1184;59612;-73
2021/10/07 03:17:54;;;;;;;5.10;2.80;;;;;;;8.77;54.06;98096.81;116261;1183;70648;-71
2021/10/07 03:20:24;;;;;;;8.10;4.60;;;;;;;8.75;54.28;98095.04;116176;1184;68346;-70
2021/10/07 03:22:53;;;;;;;7.20;3.40;;;;;;;8.70;54.47;98095.30;116186;1184;68776;-71
2021/10/07 03:25:23;;;;;;;7.00;3.70;;;;;;;8.70;54.44;98095.80;116170;1184;59576;-71
2021/10/07 03:27:52;;;;;;;4.70;3.20;;;;;;;8.67;54.66;98094.24;116262;1183;59610;-71
2021/10/07 03:30:22;;;;;;;4.60;3.70;;;;;;;8.70;54.49;98094.94;116280;1183;70411;-71
2021/10/07 03:32:51;;;;;;;4.90;3.40;;;;;;;8.62;54.76;98095.39;116210;1184;68423;-72
2021/10/07 03:35:20;;;;;;;6.80;3.90;;;;;;;8.62;54.89;98101.09;116251;1184;69122;-73
2021/10/07 03:37:50;;;;;;;6.70;4.00;;;;;;;8.60;54.94;98099.99;116197;1184;59612;-71
2021/10/07 03:40:19;;;;;;;7.40;3.60;;;;;;;8.57;54.85;98099.97;116299;1182;59490;-71
2021/10/07 03:42:48;;;;;;;5.60;3.40;;;;;;;8.60;54.80;98095.46;116242;1184;72654;-75
2021/10/07 03:45:18;;;;;;;6.40;3.10;;;;;;;8.65;54.57;98101.29;116272;1184;67554;-71
2021/10/07 03:47:47;;;;;;;6.90;3.40;;;;;;;8.63;54.78;98100.88;116249;1178;69279;-71
2021/10/07 03:50:17;;;;;;;5.30;3.20;;;;;;;8.57;55.00;98103.11;116261;1183;59564;-71
2021/10/07 03:52:46;;;;;;;5.00;3.40;;;;;;;8.55;55.13;98101.14;116239;1183;59540;-72
2021/10/07 03:55:16;;;;;;;5.40;3.40;;;;;;;8.57;54.97;98102.09;116250;1182;70423;-71
2021/10/07 03:57:45;;;;;;;3.60;2.70;;;;;;;8.52;55.12;98104.07;116153;1184;68621;-72
2021/10/07 04:00:15;;;;;;;5.10;3.50;;;;;;;8.56;54.90;98108.57;116221;1183;68539;-72
2021/10/07 04:02:44;;;;;;;;;;;;;;;8.52;55.13;98109.66;116183;1184;59558;-73
2021/10/07 04:05:13;;;;;;;8.00;5.00;;;;;;;8.42;55.55;98109.27;116144;1184;59567;-75
2021/10/07 04:07:42;;;;;;;5.00;3.40;;;;;;;8.41;55.53;98107.46;116151;1184;71461;-73
2021/10/07 04:10:12;;;;;;;6.00;3.60;;;;;;;8.36;55.69;98116.71;116215;1182;67535;-72
2021/10/07 04:12:41;;;;;;;7.10;4.20;;;;;;;8.27;56.28;98114.38;116109;1184;69288;-72
2021/10/07 04:15:10;;;;;;;6.80;3.60;;;;;;;8.22;56.38;98115.35;116213;1183;59623;-72
2021/10/07 04:17:39;;;;;;;7.60;3.60;;;;;;;8.29;55.99;98120.38;116146;1184;59548;-72
2021/10/07 04:20:09;;;;;;;7.10;3.80;;;;;;;8.25;56.31;98118.84;116202;1184;71700;-73
2021/10/07 04:22:40;;;;;;;5.60;3.20;;;;;;;8.23;56.31;98114.10;116258;1184;68483;-71
2021/10/07 04:25:10;;;;;;;7.00;3.90;;;;;;;8.24;56.35;98110.06;116190;1183;69184;-75
2021/10/07 04:27:39;;;;;;;7.10;3.60;;;;;;;8.21;56.51;98111.05;116212;1184;59568;-73
2021/10/07 04:30:10;;;;;;;6.00;3.30;;;;;;;8.19;56.65;98111.70;116228;1183;59555;-75
2021/10/07 04:32:39;;;;;;;7.70;3.40;;;;;;;8.18;56.69;98109.16;116261;1184;71367;-75
2021/10/07 04:35:08;;;;;;;4.90;2.70;;;;;;;8.13;56.70;98111.10;116245;1182;68340;-74
2021/10/07 04:37:37;;;;;;;6.70;3.20;;;;;;;8.11;56.87;98109.30;116245;1184;68328;-72
2021/10/07 04:40:07;;;;;;;5.40;3.40;;;;;;;8.11;56.91;98112.95;116273;1183;59560;-72
2021/10/07 04:42:36;;;;;;;5.60;3.50;;;;;;;8.11;57.11;98107.39;116273;1184;59609;-72
2021/10/07 04:45:06;;;;;;;6.70;3.30;;;;;;;8.13;57.07;98109.90;116240;1184;71896;-73
2021/10/07 04:47:35;;;;;;;8.90;3.90;;;;;;;8.15;57.15;98111.04;116264;1184;67427;-73
2021/10/07 04:50:05;;;;;;;4.60;3.10;;;;;;;8.15;57.22;98112.20;116278;1183;69427;-72
2021/10/07 04:52:35;;;;;;;7.10;4.10;;;;;;;8.23;56.95;98106.80;116271;1183;59515;-74
2021/10/07 04:55:05;;;;;;;7.20;3.70;;;;;;;8.25;57.03;98107.89;116228;1183;59577;-72
2021/10/07 04:57:35;;;;;;;4.60;3.30;;;;;;;8.26;57.18;98108.04;116228;1184;70287;-74
2021/10/07 05:00:06;;;;;;;9.00;2.80;;;;;;;8.26;57.52;98111.36;116211;1182;68533;-73
2021/10/07 05:02:37;;;;;;;5.40;3.10;;;;;;;8.31;57.14;98113.83;116208;1176;68281;-71
2021/10/07 05:05:08;;;;;;;11.20;3.30;;;;;;;8.39;56.87;98109.96;116290;1184;59556;-72
2021/10/07 05:07:41;;;;;;;4.30;3.10;;;;;;;8.45;56.83;98113.87;116323;1182;59567;-72
2021/10/07 05:10:10;;;;;;;5.30;3.60;;;;;;;8.55;56.50;98110.86;116243;1184;72007;-71
2021/10/07 05:12:40;;;;;;;3.10;2.30;;;;;;;8.57;56.59;98110.61;116273;1184;68386;-72
2021/10/07 05:15:09;;;;;;;;;;;;;;;8.62;56.55;98111.52;116273;1184;68542;-71
2021/10/07 05:17:38;;;;;;;7.50;3.20;;;;;;;8.65;56.58;98111.16;116219;1184;59555;-73
2021/10/07 05:20:09;;;;;;;10.80;3.20;;;;;;;8.70;56.53;98117.35;116239;1184;59558;-71
2021/10/07 05:22:38;;;;;;;;;;;;;;;8.77;56.40;98119.42;116215;1184;71434;-71
2021/10/07 05:25:07;;;;;;;5.10;3.00;;;;;;;8.84;56.30;98123.90;116239;1182;67754;-71
2021/10/07 05:27:36;;;;;;;4.70;2.60;;;;;;;8.94;56.14;98127.89;116217;1183;69346;-75
2021/10/07 05:30:07;;;;;;;5.70;3.70;;;;;;;9.04;55.81;98130.13;116248;1184;59554;-71
2021/10/07 05:32:36;;;;;;;6.90;3.90;;;;;;;9.15;55.56;98130.16;116266;1183;59551;-73
2021/10/07 05:35:09;;;;;;;3.80;2.70;;;;;;;9.18;55.65;98136.63;116107;1184;70663;-72
2021/10/07 05:37:38;;;;;;;9.90;3.90;;;;;;;9.30;55.55;98142.40;116207;1184;67676;-74
2021/10/07 05:40:08;;;;;;;9.10;3.80;;;;;;;9.46;54.74;98148.96;116166;1183;69953;-70
2021/10/07 05:42:38;;;;;;;6.90;3.10;;;;;;;9.58;54.52;98150.04;116254;1184;59537;-71
2021/10/07 05:45:10;;;;;;;5.20;2.90;;;;;;;9.73;54.29;98154.41;116236;1185;59542;-71
2021/10/07 05:47:41;;;;;;;4.80;2.40;;;;;;;9.89;53.87;98154.65;116200;1184;71481;-71
2021/10/07 05:50:12;;;;;;;6.20;3.10;;;;;;;10.05;53.32;98151.99;116206;1183;68548;-72
2021/10/07 05:52:41;;;;;;;4.80;2.80;;;;;;;10.15;52.68;98147.75;116151;1184;68704;-71
2021/10/07 05:55:10;;;;;;;5.80;2.70;;;;;;;10.28;52.17;98149.15;116202;1182;59548;-73
2021/10/07 05:57:39;;;;;;;5.30;2.90;;;;;;;10.30;52.09;98147.61;116201;1183;59562;-71
2021/10/07 06:00:09;;;;;;;7.00;3.50;;;;;;;10.35;52.15;98141.00;116196;1184;70423;-74
2021/10/07 06:02:40;;;;;;;5.60;2.80;;;;;;;10.42;52.17;98137.98;116211;1183;68074;-72
2021/10/07 06:05:10;;;;;;;6.40;2.80;;;;;;;10.48;52.38;98138.48;116096;1184;69752;-73
2021/10/07 06:07:40;;;;;;;5.30;2.50;;;;;;;10.62;51.78;98129.10;116170;1184;59558;-75
2021/10/07 06:10:09;;;;;;;4.30;2.50;;;;;;;10.79;51.53;98125.09;116150;1184;59560;-73
2021/10/07 06:12:38;;;;;;;7.00;3.20;;;;;;;10.93;51.54;98123.12;116214;1184;71115;-73
2021/10/07 06:15:07;;;;;;;8.30;3.10;;;;;;;11.16;51.40;98114.88;116220;1184;67669;-73
2021/10/07 06:17:37;;;;;;;7.40;3.50;;;;;;;11.43;50.24;98110.51;116074;1183;69455;-71
2021/10/07 06:20:19;;;;;;;5.80;2.90;;;;;;;11.68;49.44;98113.10;116214;1183;59617;-73
2021/10/07 06:22:49;;;;;;;5.00;2.50;;;;;;;11.78;49.13;98114.50;116021;1184;59925;-73
2021/10/07 06:25:21;;;;;;;6.00;2.40;;;;;;;11.73;49.39;98117.63;116144;1184;71442;-70
2021/10/07 06:27:50;;;;;;;5.10;2.50;;;;;;;11.87;49.33;98121.78;116068;1183;67811;-69
2021/10/07 06:30:20;;;;;;;5.70;2.50;;;;;;;12.14;48.64;98116.48;116207;1184;69355;-71
2021/10/07 06:32:50;;;;;;;6.90;2.90;;;;;;;12.27;48.19;98116.63;116103;1184;59564;-73
2021/10/07 06:35:20;;;;;;;7.50;2.50;;;;;;;12.26;48.40;98120.24;116166;1184;59541;-71
2021/10/07 06:37:49;;;;;;;7.80;3.40;;;;;;;12.36;48.23;98123.05;116207;1183;70898;-73
2021/10/07 06:40:18;;;;;;;4.60;2.70;;;;;;;12.57;47.68;98117.93;116232;1184;67522;-71
2021/10/07 06:42:48;;;;;;;;;;;;;;;12.55;47.57;98113.34;116223;1184;68486;-71
2021/10/07 06:45:17;;;;;;;7.50;2.50;;;;;;;12.46;47.57;98118.70;116166;1184;59528;-68
2021/10/07 06:47:46;;;;;;;7.80;3.00;;;;;;;12.47;47.91;98124.03;116231;1184;59487;-70
2021/10/07 06:50:15;;;;;;;6.80;2.70;;;;;;;12.37;48.47;98126.09;116202;1183;71413;-71
2021/10/07 06:52:45;;;;;;;4.10;2.60;;;;;;;12.66;47.67;98115.52;116250;1183;68427;-73
2021/10/07 06:55:15;;;;;;;6.30;2.60;;;;;;;12.86;46.60;98115.36;116224;1184;68492;-74
2021/10/07 06:57:44;;;;;;;6.00;2.90;;;;;;;12.87;46.66;98118.23;116213;1184;59941;-66
2021/10/07 07:00:14;;;;;;;7.00;2.60;;;;;;;12.89;47.07;98112.30;116130;1184;59560;-70
2021/10/07 07:02:43;;;;;;;;;;;;;;;13.04;46.80;98120.20;116073;1184;71608;-64
2021/10/07 07:05:13;;;;;;;6.30;2.60;;;;;;;13.24;46.33;98114.54;116275;1184;67673;-64
2021/10/07 07:07:42;;;;;;;5.70;2.80;;;;;;;13.49;45.46;98114.30;116078;1183;69519;-66
2021/10/07 07:10:17;;;;;;;6.40;2.10;;;;;;;13.60;44.86;98115.24;116148;1182;59532;-66
2021/10/07 07:12:50;;;;;;;9.10;3.20;;;;;;;13.68;44.66;98124.63;116140;1184;59549;-68
2021/10/07 07:15:21;;;;;;;7.40;2.50;;;;;;;13.66;44.31;98128.30;116102;1184;71404;-67
2021/10/07 07:17:50;;;;;;;7.00;2.60;;;;;;;13.46;44.74;98129.22;116036;1184;67762;-66
2021/10/07 07:20:19;;;;;;;4.90;2.50;;;;;;;13.41;44.80;98128.76;116080;1185;69494;-69
2021/10/07 07:22:48;;;;;;;3.40;2.10;;;;;;;13.30;44.96;98135.63;116095;1182;59516;-69
2021/10/07 07:25:18;;;;;;;7.40;2.30;;;;;;;13.28;44.92;98141.05;116112;1182;59545;-65
2021/10/07 07:27:47;;;;;;;4.20;1.80;;;;;;;13.24;44.73;98140.45;116043;1183;69721;-62
2021/10/07 07:30:17;;;;;;;7.20;2.10;;;;;;;13.18;44.79;98136.84;116162;1184;67715;-68
2021/10/07 07:32:46;;;;;;;3.60;1.60;;;;;;;13.12;45.29;98136.06;116108;1184;69077;-62
2021/10/07 07:35:15;;;;;;;6.30;1.90;;;;;;;13.22;45.42;98136.70;116144;1183;59565;-66
2021/10/07 07:37:45;;;;;;;5.90;2.00;;;;;;;13.31;44.87;98133.51;115979;1177;59540;-68
2021/10/07 07:40:14;;;;;;;5.90;2.20;;;;;;;13.30;44.52;98147.92;116012;1184;71440;-66
2021/10/07 07:42:48;;;;;;;7.40;2.40;;;;;;;13.48;44.38;98148.52;116000;1184;67922;-67
2021/10/07 07:45:17;;;;;;;6.70;2.40;;;;;;;13.66;43.93;98142.64;116122;1183;68454;-65
2021/10/07 07:48:02;;;;;;;6.60;2.60;;;;;;;13.60;44.09;98146.45;116119;1183;59513;-67
2021/10/07 07:50:32;;;;;;;4.10;2.10;;;;;;;13.74;43.99;98146.82;115895;1184;59638;-64
2021/10/07 07:53:01;;;;;;;8.70;3.10;;;;;;;14.04;43.72;98148.27;115879;1185;72680;-62
2021/10/07 07:55:31;;;;;;;7.30;3.40;;;;;;;14.19;43.32;98148.54;116137;1183;67709;-62
2021/10/07 07:58:00;;;;;;;5.10;2.30;;;;;;;14.47;42.89;98153.20;116074;1184;69251;-68
2021/10/07 08:00:30;;;;;;;5.70;2.10;;;;;;;14.77;41.87;98154.91;115946;1184;59609;-65
2021/10/07 08:03:00;;;;;;;3.60;1.80;;;;;;;14.85;42.07;98142.20;116026;1184;59567;-64
2021/10/07 08:05:30;;;;;;;6.70;1.60;;;;;;;15.09;41.73;98145.19;116128;1183;71221;-67
2021/10/07 08:07:59;;;;;;;5.30;1.70;;;;;;;15.17;41.18;98135.32;116136;1184;68380;-64
2021/10/07 08:10:29;;;;;;;7.10;2.40;;;;;;;15.13;41.77;98131.77;115985;1183;68279;-69
2021/10/07 08:13:00;;;;;;;3.40;2.20;;;;;;;15.09;41.98;98134.02;116110;1184;59541;-65
2021/10/07 08:15:29;;;;;;;8.50;2.90;;;;;;;15.09;41.78;98135.05;116113;1182;59554;-68
2021/10/07 08:17:58;;;;;;;4.30;2.00;;;;;;;14.85;41.69;98130.27;115960;1184;71033;-70
2021/10/07 08:20:28;;;;;;;;;;;;;;;14.91;42.02;98131.73;116045;1184;68393;-65
2021/10/07 08:22:58;;;;;;;3.30;1.30;;;;;;;15.00;42.27;98132.06;116132;1184;69302;-69
2021/10/07 08:25:27;;;;;;;2.80;1.50;;;;;;;14.96;41.90;98132.35;116012;1184;59535;-65
2021/10/07 08:27:57;;;;;;;3.60;1.50;;;;;;;14.82;42.09;98130.55;116202;1182;59561;-65
2021/10/07 08:30:27;;;;;;;7.70;2.20;;;;;;;14.78;41.88;98133.44;115970;1184;71539;-70
2021/10/07 08:32:56;;;;;;;3.90;1.70;;;;;;;14.69;42.06;98127.13;116040;1184;68345;-68
2021/10/07 08:35:32;;;;;;;5.80;2.30;;;;;;;14.58;42.37;98129.78;116005;1184;68472;-65
2021/10/07 08:38:01;;;;;;;4.30;1.80;;;;;;;14.70;42.43;98130.53;116094;1183;59544;-65
2021/10/07 08:40:31;;;;;;;;;;;;;;;14.70;42.90;98130.02;116118;1184;59580;-66
2021/10/07 08:43:00;;;;;;;5.20;2.00;;;;;;;14.84;42.73;98131.82;116015;1184;70424;-62
2021/10/07 08:45:30;;;;;;;;;;;;;;;14.86;42.24;98127.07;116059;1184;67732;-67
2021/10/07 08:48:00;;;;;;;4.80;2.10;;;;;;;14.82;42.15;98124.73;116106;1183;69048;-65
2021/10/07 08:50:29;;;;;;;6.60;2.60;;;;;;;14.83;42.31;98123.20;116108;1184;59562;-64
2021/10/07 08:53:00;;;;;;;4.30;2.30;;;;;;;15.08;41.65;98119.89;116100;1182;59507;-65
2021/10/07 08:55:30;;;;;;;7.50;2.70;;;;;;;15.01;41.41;98120.45;116222;1183;71405;-66
2021/10/07 08:58:00;;;;;;;5.10;2.00;;;;;;;14.87;41.58;98123.77;116095;1184;68677;-70
2021/10/07 09:00:29;;;;;;;4.70;1.90;;;;;;;14.89;41.78;98128.74;116092;1184;68505;-64
2021/10/07 09:03:17;;;;;;;5.30;2.40;;;;;;;15.05;41.39;98128.31;116177;1184;59599;-69
2021/10/07 09:05:46;;;;;;;4.80;2.20;;;;;;;15.20;41.31;98126.59;116048;1184;59548;-68
2021/10/07 09:08:17;;;;;;;5.10;2.10;;;;;;;15.25;40.95;98119.33;116094;1183;71975;-67
2021/10/07 09:10:56;;;;;;;7.60;2.00;;;;;;;15.59;40.69;98122.89;116172;1184;68040;-63
2021/10/07 09:13:26;;;;;;;4.90;1.70;;;;;;;16.04;39.88;98112.33;116132;1184;68469;-64
2021/10/07 09:15:59;;;;;;;7.40;3.00;;;;;;;16.08;39.07;98114.52;116110;1184;59612;-63
2021/10/07 09:18:32;;;;;;;6.10;2.20;;;;;;;15.95;39.46;98112.42;116124;1184;59519;-63
2021/10/07 09:21:02;;;;;;;6.50;2.70;;;;;;;16.24;38.59;98108.90;116193;1182;71477;-63
2021/10/07 09:23:34;;;;;;;5.30;2.20;;;;;;;16.11;38.58;98108.63;116026;1184;68026;-64
2021/10/07 09:26:11;;;;;;;6.40;2.30;;;;;;;15.87;38.94;98103.18;116179;1184;68552;-67
2021/10/07 09:28:57;;;;;;;3.60;1.80;;;;;;;15.78;38.93;98098.87;115999;1184;59514;-66
2021/10/07 09:31:34;;;;;;;4.00;2.20;;;;;;;15.98;38.47;98095.44;116115;1184;59558;-65
2021/10/07 09:34:06;;;;;;;8.00;3.20;;;;;;;16.01;38.72;98093.67;116154;1183;71436;-67
2021/10/07 09:36:35;;;;;;;5.10;2.10;;;;;;;16.22;38.24;98097.15;116059;1184;69011;-67
2021/10/07 09:39:04;;;;;;;5.30;2.70;;;;;;;16.54;37.59;98100.02;116147;1184;68537;-64
2021/10/07 09:41:34;;;;;;;5.40;2.00;;;;;;;16.58;37.05;98104.98;116112;1184;59548;-63
2021/10/07 09:44:07;;;;;;;3.30;2.00;;;;;;;16.65;36.89;98111.73;115948;1184;59500;-64
2021/10/07 09:46:51;;;;;;;6.50;2.50;;;;;;;16.65;36.76;98118.21;116126;1184;70380;-64
2021/10/07 09:49:33;;;;;;;4.20;1.80;;;;;;;17.02;36.09;98111.05;116178;1183;67697;-64
2021/10/07 09:52:03;;;;;;;5.00;2.10;;;;;;;17.15;35.68;98113.01;116149;1184;69035;-67
2021/10/07 09:54:38;;;;;;;5.60;1.90;;;;;;;17.43;35.07;98110.48;115937;1184;59621;-66
2021/10/07 09:57:07;;;;;;;4.70;2.00;;;;;;;17.95;34.13;98110.05;116176;1184;59545;-65
2021/10/07 09:59:36;;;;;;;7.50;2.10;;;;;;;18.45;33.35;98115.79;116047;1184;70645;-65
2021/10/07 10:02:05;;;;;;;5.70;1.80;;;;;;;18.75;32.57;98123.92;116118;1183;67842;-67
2021/10/07 10:04:35;;;;;;;3.20;1.90;;;;;;;18.88;32.37;98122.34;115981;1184;69308;-64
2021/10/07 10:07:04;;;;;;;5.00;1.70;;;;;;;19.22;31.78;98117.08;116126;1184;59910;-67
2021/10/07 10:09:34;;;;;;;5.50;2.10;;;;;;;19.68;30.84;98115.79;115997;1184;59602;-66
2021/10/07 10:12:03;;;;;;;3.90;2.00;;;;;;;20.19;30.48;98117.77;116162;1182;71422;-68
2021/10/07 10:14:34;;;;;;;3.80;1.40;;;;;;;20.60;29.46;98112.38;116138;1184;68633;-70
2021/10/07 10:17:03;;;;;;;3.50;1.60;;;;;;;20.85;28.88;98112.83;116111;1183;68334;-63
2021/10/07 10:19:32;;;;;;;4.20;1.90;;;;;;;20.70;28.61;98105.02;116192;1184;59516;-62
2021/10/07 10:22:02;;;;;;;4.50;1.80;;;;;;;20.44;29.00;98105.39;116165;1183;59545;-66
2021/10/07 10:24:31;;;;;;;;;;;;;;;20.26;29.53;98103.44;116058;1184;72040;-68
2021/10/07 10:27:03;;;;;;;3.90;1.80;;;;;;;20.62;29.04;98098.88;116102;1184;67663;-69
2021/10/07 10:29:34;;;;;;;6.00;2.50;;;;;;;20.85;28.68;98099.14;116211;1183;69289;-65
2021/10/07 10:32:05;;;;;;;2.20;1.50;;;;;;;20.88;28.67;98104.04;116191;1183;59909;-64
2021/10/07 10:34:45;;;;;;;3.80;1.80;;;;;;;20.91;27.92;98109.90;116081;1174;59609;-66
2021/10/07 10:37:15;;;;;;;4.60;2.10;;;;;;;21.08;28.13;98110.27;116049;1184;70858;-65
2021/10/07 10:39:47;;;;;;;4.70;2.10;;;;;;;21.06;28.11;98105.54;116192;1183;67743;-67
2021/10/07 10:42:17;;;;;;;2.90;2.00;;;;;;;20.82;28.01;98114.57;115973;1184;69298;-66
2021/10/07 10:44:46;;;;;;;3.80;1.60;;;;;;;20.70;28.57;98117.34;116096;1184;59555;-70
2021/10/07 10:47:20;;;;;;;3.00;1.80;;;;;;;20.61;28.45;98114.04;116120;1184;59622;-64
2021/10/07 10:49:54;;;;;;;3.00;1.40;;;;;;;20.61;28.96;98110.52;116195;1184;71640;-66
2021/10/07 10:52:36;;;;;;;4.30;1.80;;;;;;;21.10;28.13;98106.08;116084;1183;68379;-68
2021/10/07 10:55:24;;;;;;;4.80;2.00;;;;;;;21.08;27.88;98110.59;116186;1183;69660;-66
2021/10/07 10:58:07;;;;;;;3.50;1.60;;;;;;;21.35;27.23;98098.04;116274;1183;59950;-67
2021/10/07 11:00:41;;;;;;;2.80;1.50;;;;;;;21.46;27.22;98103.44;115981;1180;59556;-65
2021/10/07 11:03:11;;;;;;;4.60;1.30;;;;;;;21.71;26.81;98104.61;116005;1184;71456;-67
2021/10/07 11:06:08;;;;;;;3.30;1.60;;;;;;;21.84;26.73;98110.47;116200;1183;68842;-64
2021/10/07 11:08:41;;;;;;;2.90;1.50;;;;;;;21.47;27.14;98104.70;116102;1184;68673;-71
2021/10/07 11:11:23;;;;;;;3.30;1.40;;;;;;;21.37;27.22;98096.35;116178;1184;59606;-68
2021/10/07 11:13:54;;;;;;;2.80;1.30;;;;;;;21.53;27.42;98100.02;116093;1184;59603;-69
2021/10/07 11:16:25;;;;;;;3.30;1.90;;;;;;;21.66;26.83;98099.89;116201;1184;71494;-69
2021/10/07 11:18:54;;;;;;;5.30;2.10;;;;;;;21.48;27.18;98096.27;115968;1184;68435;-70
2021/10/07 11:21:24;;;;;;;3.00;1.20;;;;;;;21.57;27.06;98101.34;116114;1184;68549;-69
2021/10/07 11:23:55;;;;;;;4.70;1.60;;;;;;;21.56;27.08;98101.61;116079;1182;59589;-66
2021/10/07 11:26:31;;;;;;;3.10;1.70;;;;;;;21.77;26.80;98101.80;116204;1183;59577;-69
2021/10/07 11:29:00;;;;;;;2.70;1.20;;;;;;;21.88;26.43;98096.77;116096;1184;71898;-68
2021/10/07 11:31:29;;;;;;;4.40;1.30;;;;;;;21.62;26.84;98099.38;115996;1184;68452;-69
2021/10/07 11:34:00;;;;;;;6.60;1.40;;;;;;;21.61;26.98;98093.96;116042;1184;69331;-69
2021/10/07 11:36:31;;;;;;;2.70;1.60;;;;;;;21.51;27.21;98094.75;116061;1184;59542;-69
2021/10/07 11:39:01;;;;;;;3.20;1.50;;;;;;;21.45;27.69;98092.48;116256;1182;59496;-70
2021/10/07 11:41:34;;;;;;;3.40;1.30;;;;;;;21.70;27.25;98097.09;116164;1183;69648;-71
2021/10/07 11:44:05;;;;;;;2.90;1.50;;;;;;;22.02;26.28;98101.10;116028;1182;68485;-66
2021/10/07 11:46:36;;;;;;;7.50;1.30;;;;;;;21.74;26.53;98096.10;116268;1184;69305;-68
2021/10/07 11:49:07;;;;;;;3.40;1.30;;;;;;;21.27;27.10;98097.80;116214;1183;59540;-69
2021/10/07 11:51:38;;;;;;;4.10;1.60;;;;;;;21.41;27.43;98095.96;116183;1183;59536;-67
2021/10/07 11:54:07;;;;;;;5.20;1.90;;;;;;;21.20;27.43;98103.89;116255;1183;72002;-68
2021/10/07 11:56:38;;;;;;;3.30;1.30;;;;;;;21.05;27.82;98109.69;116237;1183;67856;-66